Bruk link Alternativ webside om du vil se statistikk,rapport,graf,analyse og mye mer.

Lynradar: storm image Ingen tordenbyger registrert..



Vårt webkamera mer informasjon My webcam


Kamera på Foreneset mer informasjon webcam on foreneset


Nedbørsradar  rain snow radar


Besøk vår andre værside:

Alternativ webside

iphone versjon

Nettbrett versjon

Foreneset
verstasjon



Ikke nødvendig med spesiell oppmerksomhet.    Det er ingen advarsler

Nære METAR rapporter

     
ENZV - Stavanger
oppdatert: 16-06-2021 17:50
Delvis Skyet  
Delvis Skyet  
   Vind: SSØ 8.2 m/s
Vind: SSØ 8.2 m/s
Temperatur: 18°C
Duggpunkt: 10°C
Fuktighet: 60%
Barometer: 1013 hPa
Skyer: Delvis Skyet
Sikt: mer enn 10 km
Skydetaljer: Delvis Skyet 1066.8 m
ENZV 161550Z 16016KT 9999 SCT035 18/10 Q1013 NOSIG
ENHD - Haugesund
oppdatert: 16-06-2021 17:50
For det meste skyet  
For det meste skyet  
   Vind: SSØ 10.3 m/s
Vind: SSØ 10.3 m/s
Temperatur: 17°C
Duggpunkt: 10°C
Fuktighet: 64%
Barometer: 1012 hPa
Skyer: For det meste skyet
Sikt: mer enn 10 km
Skydetaljer: For det meste skyet 914.4 m,
For det meste skyet 5486.4 m
ENHD 161550Z 16020KT 9999 BKN030 BKN180 17/10 Q1012
ENBR - Bergen
oppdatert: 16-06-2021 17:50
For det meste skyet  
For det meste skyet  
   Vind: Sør 9.3 m/s
Vind: Sør 9.3 m/s
Temperatur: 16°C
Duggpunkt: 11°C
Fuktighet: 72%
Barometer: 1011 hPa
Skyer: For det meste skyet
Sikt: mer enn 10 km
Skydetaljer: For det meste skyet 944.9 m
ENBR 161550Z 19018KT 9999 BKN031 16/11 Q1011 NOSIG RMK WIND 1200FT 18025KT
ENCN - Kristiansand
oppdatert: 16-06-2021 17:50
Delvis Skyet  
Delvis Skyet  
   Vind: Sør 4.6 m/s
Vind: Sør 4.6 m/s
Temperatur: 15°C
Duggpunkt: 11°C
Fuktighet: 77%
Barometer: 1016 hPa
Skyer: Delvis Skyet
Sikt: mer enn 10 km
Skydetaljer: Delvis Skyet 670.6 m
ENCN 161550Z 19009KT 9999 SCT022 15/11 Q1016
ENGM - Oslo
oppdatert: 16-06-2021 17:50
For det meste skyet  
For det meste skyet  
   Vind: Sør 8.7 m/s
Vind: Sør 8.7 m/s
Temperatur: 17°C
Duggpunkt: 9°C
Fuktighet: 59%
Barometer: 1014 hPa
Skyer: For det meste skyet
Sikt: mer enn 10 km
Skydetaljer: Få Skyer 1127.8 m,
For det meste skyet 5791.2 m
ENGM 161550Z 17017KT 9999 FEW037 BKN190 17/09 Q1014 TEMPO 20015G27KT
ENVA - Trondheim
oppdatert: 16-06-2021 17:50
Klart  
Klart  
   Vind: varierer 1.5 m/s
Vind: varierer 1.5 m/s
Temperatur: 19°C
Duggpunkt: 7°C
Fuktighet: 46%
Barometer: 1010 hPa
Sikt: mer enn 10 km
Skydetaljer: Klart
ENVA 161550Z VRB03KT CAVOK 19/07 Q1010 NOSIG RMK WIND 670FT 19007KT
    

Script utviklet av  Saratoga-weather.org Tilrettelagt for malen av  Weerstation Leuven

Du finner vår vær info også på:

UK Metoffice

European Weather Network

WeatherCloud

Weather Underground

Utstyr vi bruker:

Værstsjon
Davis VP2

Værprogram
Weather Display

Davis VP2

Weather Display